sensor_id;sensor_type;location;lat;lon;timestamp;temperature;humidity
1129;DHT22;553;51.038;7.216;2023-03-07T00:01:30;2.80;99.90
1129;DHT22;553;51.038;7.216;2023-03-07T00:03:58;2.80;99.90
1129;DHT22;553;51.038;7.216;2023-03-07T00:06:25;2.70;99.90
1129;DHT22;553;51.038;7.216;2023-03-07T00:08:59;2.70;99.90
1129;DHT22;553;51.038;7.216;2023-03-07T00:11:27;2.70;99.90
1129;DHT22;553;51.038;7.216;2023-03-07T00:13:54;2.70;99.90
1129;DHT22;553;51.038;7.216;2023-03-07T00:16:22;2.80;99.90
1129;DHT22;553;51.038;7.216;2023-03-07T00:18:49;2.70;99.90
1129;DHT22;553;51.038;7.216;2023-03-07T00:21:21;2.70;99.90
1129;DHT22;553;51.038;7.216;2023-03-07T00:23:51;2.80;99.90
1129;DHT22;553;51.038;7.216;2023-03-07T00:26:22;2.90;99.90
1129;DHT22;553;51.038;7.216;2023-03-07T00:28:50;2.90;99.90
1129;DHT22;553;51.038;7.216;2023-03-07T00:31:18;3.00;99.90
1129;DHT22;553;51.038;7.216;2023-03-07T00:33:46;3.10;99.90
1129;DHT22;553;51.038;7.216;2023-03-07T00:36:18;3.10;99.90
1129;DHT22;553;51.038;7.216;2023-03-07T00:38:46;3.10;99.90
1129;DHT22;553;51.038;7.216;2023-03-07T00:41:15;3.30;99.90
1129;DHT22;553;51.038;7.216;2023-03-07T00:43:43;3.20;99.90
1129;DHT22;553;51.038;7.216;2023-03-07T00:46:12;3.30;99.90
1129;DHT22;553;51.038;7.216;2023-03-07T00:48:39;3.20;99.90
1129;DHT22;553;51.038;7.216;2023-03-07T00:51:08;3.20;99.90
1129;DHT22;553;51.038;7.216;2023-03-07T00:53:35;3.20;99.90
1129;DHT22;553;51.038;7.216;2023-03-07T00:56:22;3.30;99.90
1129;DHT22;553;51.038;7.216;2023-03-07T00:58:50;3.30;99.90
1129;DHT22;553;51.038;7.216;2023-03-07T01:01:20;3.40;99.90
1129;DHT22;553;51.038;7.216;2023-03-07T01:03:47;3.40;99.90
1129;DHT22;553;51.038;7.216;2023-03-07T01:06:21;3.40;99.90
1129;DHT22;553;51.038;7.216;2023-03-07T01:08:48;3.40;99.90
1129;DHT22;553;51.038;7.216;2023-03-07T01:11:15;3.50;99.90
1129;DHT22;553;51.038;7.216;2023-03-07T01:13:42;3.50;99.90
1129;DHT22;553;51.038;7.216;2023-03-07T01:16:21;3.50;99.90
1129;DHT22;553;51.038;7.216;2023-03-07T01:18:50;3.50;99.90
1129;DHT22;553;51.038;7.216;2023-03-07T01:21:29;3.60;99.90
1129;DHT22;553;51.038;7.216;2023-03-07T01:23:57;3.50;99.90
1129;DHT22;553;51.038;7.216;2023-03-07T01:26:30;3.60;99.90
1129;DHT22;553;51.038;7.216;2023-03-07T01:29:00;3.60;99.90
1129;DHT22;553;51.038;7.216;2023-03-07T01:31:29;3.60;99.90
1129;DHT22;553;51.038;7.216;2023-03-07T01:33:59;3.60;99.90
1129;DHT22;553;51.038;7.216;2023-03-07T01:36:31;3.60;99.90
1129;DHT22;553;51.038;7.216;2023-03-07T01:39:13;3.60;99.90
1129;DHT22;553;51.038;7.216;2023-03-07T01:41:46;3.70;99.90
1129;DHT22;553;51.038;7.216;2023-03-07T01:44:19;3.60;99.90
1129;DHT22;553;51.038;7.216;2023-03-07T01:49:37;3.80;99.90
1129;DHT22;553;51.038;7.216;2023-03-07T01:52:12;3.80;99.90
1129;DHT22;553;51.038;7.216;2023-03-07T01:54:48;3.80;99.90
1129;DHT22;553;51.038;7.216;2023-03-07T01:57:21;3.70;99.90
1129;DHT22;553;51.038;7.216;2023-03-07T01:59:53;3.70;99.90
1129;DHT22;553;51.038;7.216;2023-03-07T02:02:21;3.70;99.90
1129;DHT22;553;51.038;7.216;2023-03-07T02:07:23;3.80;99.90
1129;DHT22;553;51.038;7.216;2023-03-07T02:09:52;3.80;99.90
1129;DHT22;553;51.038;7.216;2023-03-07T02:12:19;3.80;99.90
1129;DHT22;553;51.038;7.216;2023-03-07T02:14:49;3.70;99.90
1129;DHT22;553;51.038;7.216;2023-03-07T02:17:17;3.70;99.90
1129;DHT22;553;51.038;7.216;2023-03-07T02:22:55;3.70;99.90
1129;DHT22;553;51.038;7.216;2023-03-07T02:25:39;3.70;99.90
1129;DHT22;553;51.038;7.216;2023-03-07T02:28:09;3.70;99.90
1129;DHT22;553;51.038;7.216;2023-03-07T02:30:37;3.70;99.90
1129;DHT22;553;51.038;7.216;2023-03-07T02:33:04;3.80;99.90
1129;DHT22;553;51.038;7.216;2023-03-07T02:35:31;3.80;99.90
1129;DHT22;553;51.038;7.216;2023-03-07T02:38:02;3.70;99.90
1129;DHT22;553;51.038;7.216;2023-03-07T02:40:30;3.70;99.90
1129;DHT22;553;51.038;7.216;2023-03-07T02:43:01;3.80;99.90
1129;DHT22;553;51.038;7.216;2023-03-07T02:45:31;3.70;99.90
1129;DHT22;553;51.038;7.216;2023-03-07T02:47:58;3.70;99.90
1129;DHT22;553;51.038;7.216;2023-03-07T02:50:26;3.70;99.90
1129;DHT22;553;51.038;7.216;2023-03-07T02:52:52;3.70;99.90
1129;DHT22;553;51.038;7.216;2023-03-07T02:55:19;3.70;99.90
1129;DHT22;553;51.038;7.216;2023-03-07T02:57:53;3.70;99.90
1129;DHT22;553;51.038;7.216;2023-03-07T03:00:20;3.70;99.90
1129;DHT22;553;51.038;7.216;2023-03-07T03:02:48;3.70;99.90
1129;DHT22;553;51.038;7.216;2023-03-07T03:05:14;3.80;99.90
1129;DHT22;553;51.038;7.216;2023-03-07T03:07:41;3.80;99.90
1129;DHT22;553;51.038;7.216;2023-03-07T03:10:08;3.80;99.90
1129;DHT22;553;51.038;7.216;2023-03-07T03:12:35;3.80;99.90
1129;DHT22;553;51.038;7.216;2023-03-07T03:15:03;3.80;99.90
1129;DHT22;553;51.038;7.216;2023-03-07T03:17:31;3.80;99.90
1129;DHT22;553;51.038;7.216;2023-03-07T03:19:58;3.90;99.90
1129;DHT22;553;51.038;7.216;2023-03-07T03:22:25;3.90;99.90
1129;DHT22;553;51.038;7.216;2023-03-07T03:24:51;4.00;99.90
1129;DHT22;553;51.038;7.216;2023-03-07T03:27:19;4.00;99.90
1129;DHT22;553;51.038;7.216;2023-03-07T03:29:48;4.00;99.90
1129;DHT22;553;51.038;7.216;2023-03-07T03:32:15;4.00;99.90
1129;DHT22;553;51.038;7.216;2023-03-07T03:34:43;4.00;99.90
1129;DHT22;553;51.038;7.216;2023-03-07T03:37:10;4.10;99.90
1129;DHT22;553;51.038;7.216;2023-03-07T03:39:37;4.00;99.90
1129;DHT22;553;51.038;7.216;2023-03-07T03:42:05;4.00;99.90
1129;DHT22;553;51.038;7.216;2023-03-07T03:44:32;4.00;99.90
1129;DHT22;553;51.038;7.216;2023-03-07T03:46:59;4.10;99.90
1129;DHT22;553;51.038;7.216;2023-03-07T03:49:26;4.00;99.90
1129;DHT22;553;51.038;7.216;2023-03-07T03:51:54;3.90;99.90
1129;DHT22;553;51.038;7.216;2023-03-07T03:54:21;4.00;99.90
1129;DHT22;553;51.038;7.216;2023-03-07T03:56:47;4.00;99.90
1129;DHT22;553;51.038;7.216;2023-03-07T03:59:14;3.90;99.90
1129;DHT22;553;51.038;7.216;2023-03-07T04:01:41;3.90;99.90
1129;DHT22;553;51.038;7.216;2023-03-07T04:04:08;3.90;99.90
1129;DHT22;553;51.038;7.216;2023-03-07T04:06:36;4.00;99.90
1129;DHT22;553;51.038;7.216;2023-03-07T04:09:03;4.10;99.90
1129;DHT22;553;51.038;7.216;2023-03-07T04:11:31;4.10;99.90
1129;DHT22;553;51.038;7.216;2023-03-07T04:13:58;4.10;99.90
1129;DHT22;553;51.038;7.216;2023-03-07T04:16:25;4.10;99.90
1129;DHT22;553;51.038;7.216;2023-03-07T04:18:52;4.00;99.90
1129;DHT22;553;51.038;7.216;2023-03-07T04:21:20;4.00;99.90
1129;DHT22;553;51.038;7.216;2023-03-07T04:23:49;4.00;99.90
1129;DHT22;553;51.038;7.216;2023-03-07T04:26:22;4.00;99.90
1129;DHT22;553;51.038;7.216;2023-03-07T04:28:49;4.10;99.90
1129;DHT22;553;51.038;7.216;2023-03-07T04:31:25;4.00;99.90
1129;DHT22;553;51.038;7.216;2023-03-07T04:33:54;4.00;99.90
1129;DHT22;553;51.038;7.216;2023-03-07T04:36:22;4.10;99.90
1129;DHT22;553;51.038;7.216;2023-03-07T04:38:50;4.10;99.90
1129;DHT22;553;51.038;7.216;2023-03-07T04:41:21;4.10;99.90
1129;DHT22;553;51.038;7.216;2023-03-07T04:43:53;4.10;99.90
1129;DHT22;553;51.038;7.216;2023-03-07T04:46:21;4.10;99.90
1129;DHT22;553;51.038;7.216;2023-03-07T04:48:48;4.00;99.90
1129;DHT22;553;51.038;7.216;2023-03-07T04:51:15;4.00;99.90
1129;DHT22;553;51.038;7.216;2023-03-07T04:53:42;4.00;99.90
1129;DHT22;553;51.038;7.216;2023-03-07T04:56:10;4.00;99.90
1129;DHT22;553;51.038;7.216;2023-03-07T04:58:38;4.00;99.90
1129;DHT22;553;51.038;7.216;2023-03-07T05:01:05;4.00;99.90
1129;DHT22;553;51.038;7.216;2023-03-07T05:03:34;4.10;99.90
1129;DHT22;553;51.038;7.216;2023-03-07T05:06:06;4.10;99.90
1129;DHT22;553;51.038;7.216;2023-03-07T05:08:34;4.10;99.90
1129;DHT22;553;51.038;7.216;2023-03-07T05:11:01;4.10;99.90
1129;DHT22;553;51.038;7.216;2023-03-07T05:13:29;4.10;99.90
1129;DHT22;553;51.038;7.216;2023-03-07T05:15:57;4.10;99.90
1129;DHT22;553;51.038;7.216;2023-03-07T05:18:26;4.10;99.90
1129;DHT22;553;51.038;7.216;2023-03-07T05:20:54;4.20;99.90
1129;DHT22;553;51.038;7.216;2023-03-07T05:23:21;4.20;99.90
1129;DHT22;553;51.038;7.216;2023-03-07T05:25:50;4.20;99.90
1129;DHT22;553;51.038;7.216;2023-03-07T05:28:18;4.20;99.90
1129;DHT22;553;51.038;7.216;2023-03-07T05:30:45;4.20;99.90
1129;DHT22;553;51.038;7.216;2023-03-07T05:33:13;4.20;99.90
1129;DHT22;553;51.038;7.216;2023-03-07T05:35:41;4.20;99.90
1129;DHT22;553;51.038;7.216;2023-03-07T05:38:10;4.20;99.90
1129;DHT22;553;51.038;7.216;2023-03-07T05:40:37;4.20;99.90
1129;DHT22;553;51.038;7.216;2023-03-07T05:43:05;4.20;99.90
1129;DHT22;553;51.038;7.216;2023-03-07T05:45:32;4.20;99.90
1129;DHT22;553;51.038;7.216;2023-03-07T05:48:00;4.20;99.90
1129;DHT22;553;51.038;7.216;2023-03-07T05:50:27;4.20;99.90
1129;DHT22;553;51.038;7.216;2023-03-07T05:52:54;4.20;99.90
1129;DHT22;553;51.038;7.216;2023-03-07T05:55:23;4.10;99.90
1129;DHT22;553;51.038;7.216;2023-03-07T05:57:51;4.00;99.90
1129;DHT22;553;51.038;7.216;2023-03-07T06:00:18;4.00;99.90
1129;DHT22;553;51.038;7.216;2023-03-07T06:02:52;4.00;99.90
1129;DHT22;553;51.038;7.216;2023-03-07T06:05:19;4.10;99.90
1129;DHT22;553;51.038;7.216;2023-03-07T06:07:46;4.10;99.90
1129;DHT22;553;51.038;7.216;2023-03-07T06:10:14;4.10;99.90
1129;DHT22;553;51.038;7.216;2023-03-07T06:12:41;4.10;99.90
1129;DHT22;553;51.038;7.216;2023-03-07T06:15:08;4.10;99.90
1129;DHT22;553;51.038;7.216;2023-03-07T06:17:35;4.10;99.90
1129;DHT22;553;51.038;7.216;2023-03-07T06:20:05;4.20;99.90
1129;DHT22;553;51.038;7.216;2023-03-07T06:22:32;4.20;99.90
1129;DHT22;553;51.038;7.216;2023-03-07T06:25:01;4.20;99.90
1129;DHT22;553;51.038;7.216;2023-03-07T06:27:31;4.10;99.90
1129;DHT22;553;51.038;7.216;2023-03-07T06:29:58;4.10;99.90
1129;DHT22;553;51.038;7.216;2023-03-07T06:32:26;4.20;99.90
1129;DHT22;553;51.038;7.216;2023-03-07T06:34:52;4.20;99.90
1129;DHT22;553;51.038;7.216;2023-03-07T06:37:19;4.20;99.90
1129;DHT22;553;51.038;7.216;2023-03-07T06:39:46;4.10;99.90
1129;DHT22;553;51.038;7.216;2023-03-07T06:42:12;4.30;99.90
1129;DHT22;553;51.038;7.216;2023-03-07T06:44:39;4.30;99.90
1129;DHT22;553;51.038;7.216;2023-03-07T06:47:09;4.30;99.90
1129;DHT22;553;51.038;7.216;2023-03-07T06:49:36;4.30;99.90
1129;DHT22;553;51.038;7.216;2023-03-07T06:52:03;4.30;99.90
1129;DHT22;553;51.038;7.216;2023-03-07T06:54:30;4.30;99.90
1129;DHT22;553;51.038;7.216;2023-03-07T06:56:57;4.40;99.90
1129;DHT22;553;51.038;7.216;2023-03-07T06:59:24;4.40;99.90
1129;DHT22;553;51.038;7.216;2023-03-07T07:01:51;4.30;99.90
1129;DHT22;553;51.038;7.216;2023-03-07T07:04:19;4.30;99.90
1129;DHT22;553;51.038;7.216;2023-03-07T07:06:47;4.30;99.90
1129;DHT22;553;51.038;7.216;2023-03-07T07:09:15;4.30;99.90
1129;DHT22;553;51.038;7.216;2023-03-07T07:11:42;4.30;99.90
1129;DHT22;553;51.038;7.216;2023-03-07T07:14:11;4.30;99.90
1129;DHT22;553;51.038;7.216;2023-03-07T07:16:39;4.40;99.90
1129;DHT22;553;51.038;7.216;2023-03-07T07:19:07;4.40;99.90
1129;DHT22;553;51.038;7.216;2023-03-07T07:21:34;4.40;99.90
1129;DHT22;553;51.038;7.216;2023-03-07T07:24:01;4.30;99.90
1129;DHT22;553;51.038;7.216;2023-03-07T07:26:28;4.30;99.90
1129;DHT22;553;51.038;7.216;2023-03-07T07:28:57;4.40;99.90
1129;DHT22;553;51.038;7.216;2023-03-07T07:31:24;4.40;99.90
1129;DHT22;553;51.038;7.216;2023-03-07T07:33:51;4.40;99.90
1129;DHT22;553;51.038;7.216;2023-03-07T07:36:18;4.40;99.90
1129;DHT22;553;51.038;7.216;2023-03-07T07:38:49;4.40;99.90
1129;DHT22;553;51.038;7.216;2023-03-07T07:41:16;4.50;99.90
1129;DHT22;553;51.038;7.216;2023-03-07T07:43:44;4.50;99.90
1129;DHT22;553;51.038;7.216;2023-03-07T07:46:34;4.40;99.90
1129;DHT22;553;51.038;7.216;2023-03-07T07:49:02;4.40;99.90
1129;DHT22;553;51.038;7.216;2023-03-07T07:51:29;4.40;99.90
1129;DHT22;553;51.038;7.216;2023-03-07T07:53:56;4.50;99.90
1129;DHT22;553;51.038;7.216;2023-03-07T07:56:23;4.50;99.90
1129;DHT22;553;51.038;7.216;2023-03-07T07:58:51;4.50;99.90
1129;DHT22;553;51.038;7.216;2023-03-07T08:01:23;4.60;99.90
1129;DHT22;553;51.038;7.216;2023-03-07T08:03:50;4.60;99.90
1129;DHT22;553;51.038;7.216;2023-03-07T08:06:22;4.50;99.90
1129;DHT22;553;51.038;7.216;2023-03-07T08:08:50;4.60;99.90
1129;DHT22;553;51.038;7.216;2023-03-07T08:11:18;4.60;99.90
1129;DHT22;553;51.038;7.216;2023-03-07T08:13:45;4.60;99.90
1129;DHT22;553;51.038;7.216;2023-03-07T08:16:17;4.60;99.90
1129;DHT22;553;51.038;7.216;2023-03-07T08:18:54;4.60;99.90
1129;DHT22;553;51.038;7.216;2023-03-07T08:21:23;4.60;99.90
1129;DHT22;553;51.038;7.216;2023-03-07T08:23:50;4.50;99.90
1129;DHT22;553;51.038;7.216;2023-03-07T08:26:17;4.60;99.90
1129;DHT22;553;51.038;7.216;2023-03-07T08:28:44;4.50;99.90
1129;DHT22;553;51.038;7.216;2023-03-07T08:31:16;4.50;99.90
1129;DHT22;553;51.038;7.216;2023-03-07T08:33:45;4.50;99.90
1129;DHT22;553;51.038;7.216;2023-03-07T08:36:13;4.50;99.90
1129;DHT22;553;51.038;7.216;2023-03-07T08:38:40;4.50;99.90
1129;DHT22;553;51.038;7.216;2023-03-07T08:41:08;4.60;99.90
1129;DHT22;553;51.038;7.216;2023-03-07T08:43:36;4.60;99.90
1129;DHT22;553;51.038;7.216;2023-03-07T08:46:03;4.50;99.90
1129;DHT22;553;51.038;7.216;2023-03-07T08:48:30;4.50;99.90
1129;DHT22;553;51.038;7.216;2023-03-07T08:50:58;4.50;99.90
1129;DHT22;553;51.038;7.216;2023-03-07T08:53:29;4.50;99.90
1129;DHT22;553;51.038;7.216;2023-03-07T08:55:55;4.50;99.90
1129;DHT22;553;51.038;7.216;2023-03-07T08:58:22;4.50;99.90
1129;DHT22;553;51.038;7.216;2023-03-07T09:00:49;4.60;99.90
1129;DHT22;553;51.038;7.216;2023-03-07T09:03:16;4.60;99.90
1129;DHT22;553;51.038;7.216;2023-03-07T09:05:42;4.60;99.90
1129;DHT22;553;51.038;7.216;2023-03-07T09:08:09;4.70;99.90
1129;DHT22;553;51.038;7.216;2023-03-07T09:10:36;4.70;99.90
1129;DHT22;553;51.038;7.216;2023-03-07T09:13:03;4.70;99.90
1129;DHT22;553;51.038;7.216;2023-03-07T09:15:30;4.70;99.90
1129;DHT22;553;51.038;7.216;2023-03-07T09:17:56;4.70;99.90
1129;DHT22;553;51.038;7.216;2023-03-07T09:20:23;4.70;99.90
1129;DHT22;553;51.038;7.216;2023-03-07T09:22:50;4.70;99.90
1129;DHT22;553;51.038;7.216;2023-03-07T09:25:19;4.70;99.90
1129;DHT22;553;51.038;7.216;2023-03-07T09:27:46;4.70;99.90
1129;DHT22;553;51.038;7.216;2023-03-07T09:30:13;4.80;99.90
1129;DHT22;553;51.038;7.216;2023-03-07T09:32:40;4.80;99.90
1129;DHT22;553;51.038;7.216;2023-03-07T09:35:07;4.80;99.90
1129;DHT22;553;51.038;7.216;2023-03-07T09:37:35;4.90;99.90
1129;DHT22;553;51.038;7.216;2023-03-07T09:40:04;4.80;99.90
1129;DHT22;553;51.038;7.216;2023-03-07T09:43:01;4.80;99.90
1129;DHT22;553;51.038;7.216;2023-03-07T09:53:50;4.90;99.90
1129;DHT22;553;51.038;7.216;2023-03-07T09:56:30;4.90;99.90
1129;DHT22;553;51.038;7.216;2023-03-07T09:59:40;4.90;99.90
1129;DHT22;553;51.038;7.216;2023-03-07T10:02:31;5.00;99.90
1129;DHT22;553;51.038;7.216;2023-03-07T10:07:34;5.00;99.90
1129;DHT22;553;51.038;7.216;2023-03-07T10:10:05;5.10;99.90
1129;DHT22;553;51.038;7.216;2023-03-07T10:13:00;5.10;99.90
1129;DHT22;553;51.038;7.216;2023-03-07T10:15:45;5.10;99.90
1129;DHT22;553;51.038;7.216;2023-03-07T10:21:51;5.30;99.90
1129;DHT22;553;51.038;7.216;2023-03-07T10:27:04;5.30;99.90
1129;DHT22;553;51.038;7.216;2023-03-07T10:35:23;5.30;99.90
1129;DHT22;553;51.038;7.216;2023-03-07T10:41:19;5.10;99.90
1129;DHT22;553;51.038;7.216;2023-03-07T10:43:48;5.10;99.90
1129;DHT22;553;51.038;7.216;2023-03-07T10:46:20;5.10;99.90
1129;DHT22;553;51.038;7.216;2023-03-07T10:49:12;5.10;99.90
1129;DHT22;553;51.038;7.216;2023-03-07T10:54:28;5.50;99.90
1129;DHT22;553;51.038;7.216;2023-03-07T10:57:07;5.40;99.90
1129;DHT22;553;51.038;7.216;2023-03-07T10:59:37;5.40;99.90
1129;DHT22;553;51.038;7.216;2023-03-07T11:02:31;5.30;99.90
1129;DHT22;553;51.038;7.216;2023-03-07T11:05:00;5.30;99.90
1129;DHT22;553;51.038;7.216;2023-03-07T11:07:33;5.20;99.90
1129;DHT22;553;51.038;7.216;2023-03-07T11:10:24;5.30;99.90
1129;DHT22;553;51.038;7.216;2023-03-07T11:12:49;5.20;99.90
1129;DHT22;553;51.038;7.216;2023-03-07T11:15:20;5.20;99.90
1129;DHT22;553;51.038;7.216;2023-03-07T11:17:51;5.30;99.90
1129;DHT22;553;51.038;7.216;2023-03-07T11:25:39;5.30;99.90
1129;DHT22;553;51.038;7.216;2023-03-07T11:28:33;5.30;99.90
1129;DHT22;553;51.038;7.216;2023-03-07T11:34:08;5.30;99.90
1129;DHT22;553;51.038;7.216;2023-03-07T11:36:44;5.10;99.90
1129;DHT22;553;51.038;7.216;2023-03-07T11:39:47;5.10;99.90
1129;DHT22;553;51.038;7.216;2023-03-07T11:42:26;5.00;99.90
1129;DHT22;553;51.038;7.216;2023-03-07T11:45:50;4.90;99.90
1129;DHT22;553;51.038;7.216;2023-03-07T11:47:57;4.90;99.90
1129;DHT22;553;51.038;7.216;2023-03-07T11:50:28;5.10;99.90
1129;DHT22;553;51.038;7.216;2023-03-07T11:53:18;5.00;99.90
1129;DHT22;553;51.038;7.216;2023-03-07T11:56:21;4.80;99.90
1129;DHT22;553;51.038;7.216;2023-03-07T12:01:50;4.50;99.90
1129;DHT22;553;51.038;7.216;2023-03-07T12:15:58;4.40;99.90
1129;DHT22;553;51.038;7.216;2023-03-07T12:24:05;4.20;99.90
1129;DHT22;553;51.038;7.216;2023-03-07T12:32:17;4.10;99.90
1129;DHT22;553;51.038;7.216;2023-03-07T12:34:54;4.20;99.90
1129;DHT22;553;51.038;7.216;2023-03-07T12:37:32;4.10;99.90
1129;DHT22;553;51.038;7.216;2023-03-07T12:40:09;4.00;99.90
1129;DHT22;553;51.038;7.216;2023-03-07T12:42:56;4.00;99.90
1129;DHT22;553;51.038;7.216;2023-03-07T12:45:25;4.10;99.90
1129;DHT22;553;51.038;7.216;2023-03-07T12:50:33;3.90;99.90
1129;DHT22;553;51.038;7.216;2023-03-07T12:56:17;3.80;99.90
1129;DHT22;553;51.038;7.216;2023-03-07T12:58:54;3.80;99.90
1129;DHT22;553;51.038;7.216;2023-03-07T13:01:34;3.70;99.90
1129;DHT22;553;51.038;7.216;2023-03-07T13:04:13;3.60;99.90
1129;DHT22;553;51.038;7.216;2023-03-07T13:06:42;3.40;99.90
1129;DHT22;553;51.038;7.216;2023-03-07T13:09:40;3.60;99.90
1129;DHT22;553;51.038;7.216;2023-03-07T13:19:58;3.40;99.90
1129;DHT22;553;51.038;7.216;2023-03-07T13:24:53;3.60;99.90
1129;DHT22;553;51.038;7.216;2023-03-07T13:27:24;3.70;99.90
1129;DHT22;553;51.038;7.216;2023-03-07T13:53:32;3.50;99.90
1129;DHT22;553;51.038;7.216;2023-03-07T13:58:45;3.40;99.90
1129;DHT22;553;51.038;7.216;2023-03-07T14:01:17;3.30;99.90
1129;DHT22;553;51.038;7.216;2023-03-07T14:03:51;3.40;99.90
1129;DHT22;553;51.038;7.216;2023-03-07T14:06:22;3.40;99.90
1129;DHT22;553;51.038;7.216;2023-03-07T14:08:51;3.50;99.90
1129;DHT22;553;51.038;7.216;2023-03-07T14:11:31;3.60;99.90
1129;DHT22;553;51.038;7.216;2023-03-07T14:19:58;3.80;99.90
1129;DHT22;553;51.038;7.216;2023-03-07T14:27:59;3.80;99.90
1129;DHT22;553;51.038;7.216;2023-03-07T14:30:29;3.90;99.90
1129;DHT22;553;51.038;7.216;2023-03-07T14:32:58;3.80;99.90
1129;DHT22;553;51.038;7.216;2023-03-07T14:35:51;3.80;99.90
1129;DHT22;553;51.038;7.216;2023-03-07T14:38:22;3.80;99.90
1129;DHT22;553;51.038;7.216;2023-03-07T14:46:21;3.70;99.90
1129;DHT22;553;51.038;7.216;2023-03-07T14:49:01;3.60;99.90
1129;DHT22;553;51.038;7.216;2023-03-07T14:51:33;3.60;99.90
1129;DHT22;553;51.038;7.216;2023-03-07T14:54:11;3.40;99.90
1129;DHT22;553;51.038;7.216;2023-03-07T14:56:39;3.40;99.90
1129;DHT22;553;51.038;7.216;2023-03-07T14:59:07;3.40;99.90
1129;DHT22;553;51.038;7.216;2023-03-07T15:01:47;3.40;99.90
1129;DHT22;553;51.038;7.216;2023-03-07T15:04:26;3.40;99.90
1129;DHT22;553;51.038;7.216;2023-03-07T15:07:00;3.40;99.90
1129;DHT22;553;51.038;7.216;2023-03-07T15:09:27;3.60;99.90
1129;DHT22;553;51.038;7.216;2023-03-07T15:12:14;3.60;99.90
1129;DHT22;553;51.038;7.216;2023-03-07T15:14:54;3.60;99.90
1129;DHT22;553;51.038;7.216;2023-03-07T15:17:28;3.60;99.90
1129;DHT22;553;51.038;7.216;2023-03-07T15:20:09;3.50;99.90
1129;DHT22;553;51.038;7.216;2023-03-07T15:22:42;3.60;99.90
1129;DHT22;553;51.038;7.216;2023-03-07T15:25:22;3.60;99.90
1129;DHT22;553;51.038;7.216;2023-03-07T15:28:03;3.70;99.90
1129;DHT22;553;51.038;7.216;2023-03-07T15:30:33;3.60;99.90
1129;DHT22;553;51.038;7.216;2023-03-07T15:33:23;3.50;99.90
1129;DHT22;553;51.038;7.216;2023-03-07T15:41:24;3.20;99.90
1129;DHT22;553;51.038;7.216;2023-03-07T15:46:49;3.10;99.90
1129;DHT22;553;51.038;7.216;2023-03-07T15:49:40;3.00;99.90
1129;DHT22;553;51.038;7.216;2023-03-07T15:52:24;2.80;99.90
1129;DHT22;553;51.038;7.216;2023-03-07T15:54:54;2.80;99.90
1129;DHT22;553;51.038;7.216;2023-03-07T15:57:29;2.80;99.90
1129;DHT22;553;51.038;7.216;2023-03-07T16:00:07;2.90;99.90
1129;DHT22;553;51.038;7.216;2023-03-07T16:02:46;2.90;99.90
1129;DHT22;553;51.038;7.216;2023-03-07T16:07:50;2.90;99.90
1129;DHT22;553;51.038;7.216;2023-03-07T16:10:18;2.90;99.90
1129;DHT22;553;51.038;7.216;2023-03-07T16:12:47;2.90;99.90
1129;DHT22;553;51.038;7.216;2023-03-07T16:15:16;3.00;99.90
1129;DHT22;553;51.038;7.216;2023-03-07T16:17:43;2.90;99.90
1129;DHT22;553;51.038;7.216;2023-03-07T16:20:22;2.80;99.90
1129;DHT22;553;51.038;7.216;2023-03-07T16:22:49;2.80;99.90
1129;DHT22;553;51.038;7.216;2023-03-07T16:25:16;2.70;99.90
1129;DHT22;553;51.038;7.216;2023-03-07T16:27:54;2.60;99.90
1129;DHT22;553;51.038;7.216;2023-03-07T16:30:24;2.60;99.90
1129;DHT22;553;51.038;7.216;2023-03-07T16:32:51;2.50;99.90
1129;DHT22;553;51.038;7.216;2023-03-07T16:35:20;2.60;99.90
1129;DHT22;553;51.038;7.216;2023-03-07T16:37:47;2.70;99.90
1129;DHT22;553;51.038;7.216;2023-03-07T16:40:15;2.60;99.90
1129;DHT22;553;51.038;7.216;2023-03-07T16:42:44;2.60;99.90
1129;DHT22;553;51.038;7.216;2023-03-07T16:45:20;2.60;99.90
1129;DHT22;553;51.038;7.216;2023-03-07T16:47:50;2.50;99.90
1129;DHT22;553;51.038;7.216;2023-03-07T16:50:20;2.40;99.90
1129;DHT22;553;51.038;7.216;2023-03-07T16:52:47;2.40;99.90
1129;DHT22;553;51.038;7.216;2023-03-07T16:55:14;2.50;99.90
1129;DHT22;553;51.038;7.216;2023-03-07T16:57:44;2.60;99.90
1129;DHT22;553;51.038;7.216;2023-03-07T17:00:16;2.70;99.90
1129;DHT22;553;51.038;7.216;2023-03-07T17:02:45;2.60;99.90
1129;DHT22;553;51.038;7.216;2023-03-07T17:05:20;2.60;99.90
1129;DHT22;553;51.038;7.216;2023-03-07T17:07:47;2.70;99.90
1129;DHT22;553;51.038;7.216;2023-03-07T17:10:14;2.70;99.90
1129;DHT22;553;51.038;7.216;2023-03-07T17:12:41;2.70;99.90
1129;DHT22;553;51.038;7.216;2023-03-07T17:15:19;2.70;99.90
1129;DHT22;553;51.038;7.216;2023-03-07T17:17:46;2.70;99.90
1129;DHT22;553;51.038;7.216;2023-03-07T17:20:15;2.50;99.90
1129;DHT22;553;51.038;7.216;2023-03-07T17:22:42;2.40;99.90
1129;DHT22;553;51.038;7.216;2023-03-07T17:25:09;2.40;99.90
1129;DHT22;553;51.038;7.216;2023-03-07T17:27:40;2.40;99.90
1129;DHT22;553;51.038;7.216;2023-03-07T17:30:10;2.50;99.90
1129;DHT22;553;51.038;7.216;2023-03-07T17:32:40;2.40;99.90
1129;DHT22;553;51.038;7.216;2023-03-07T17:35:07;2.40;99.90
1129;DHT22;553;51.038;7.216;2023-03-07T17:37:35;2.30;99.90
1129;DHT22;553;51.038;7.216;2023-03-07T17:40:02;2.40;99.90
1129;DHT22;553;51.038;7.216;2023-03-07T17:42:39;2.50;99.90
1129;DHT22;553;51.038;7.216;2023-03-07T17:45:08;2.50;99.90
1129;DHT22;553;51.038;7.216;2023-03-07T17:47:35;2.60;99.90
1129;DHT22;553;51.038;7.216;2023-03-07T17:50:03;2.60;99.90
1129;DHT22;553;51.038;7.216;2023-03-07T17:52:31;2.50;99.90
1129;DHT22;553;51.038;7.216;2023-03-07T17:54:58;2.50;99.90
1129;DHT22;553;51.038;7.216;2023-03-07T17:57:26;2.60;99.90
1129;DHT22;553;51.038;7.216;2023-03-07T17:59:53;2.60;99.90
1129;DHT22;553;51.038;7.216;2023-03-07T18:02:20;2.60;99.90
1129;DHT22;553;51.038;7.216;2023-03-07T18:04:47;2.50;99.90
1129;DHT22;553;51.038;7.216;2023-03-07T18:07:14;2.60;99.90
1129;DHT22;553;51.038;7.216;2023-03-07T18:09:43;2.70;99.90
1129;DHT22;553;51.038;7.216;2023-03-07T18:12:10;2.60;99.90
1129;DHT22;553;51.038;7.216;2023-03-07T18:14:37;2.50;99.90
1129;DHT22;553;51.038;7.216;2023-03-07T18:17:03;2.60;99.90
1129;DHT22;553;51.038;7.216;2023-03-07T18:19:30;2.50;99.90
1129;DHT22;553;51.038;7.216;2023-03-07T18:21:57;2.50;99.90
1129;DHT22;553;51.038;7.216;2023-03-07T18:24:27;2.50;99.90
1129;DHT22;553;51.038;7.216;2023-03-07T18:26:56;2.60;99.90
1129;DHT22;553;51.038;7.216;2023-03-07T18:29:26;2.50;99.90
1129;DHT22;553;51.038;7.216;2023-03-07T18:31:53;2.50;99.90
1129;DHT22;553;51.038;7.216;2023-03-07T18:34:21;2.50;99.90
1129;DHT22;553;51.038;7.216;2023-03-07T18:36:47;2.60;99.90
1129;DHT22;553;51.038;7.216;2023-03-07T18:39:17;2.50;99.90
1129;DHT22;553;51.038;7.216;2023-03-07T18:41:44;2.60;99.90
1129;DHT22;553;51.038;7.216;2023-03-07T18:44:11;2.50;99.90
1129;DHT22;553;51.038;7.216;2023-03-07T18:46:38;2.50;99.90
1129;DHT22;553;51.038;7.216;2023-03-07T18:49:05;2.50;99.90
1129;DHT22;553;51.038;7.216;2023-03-07T18:51:32;2.40;99.90
1129;DHT22;553;51.038;7.216;2023-03-07T18:54:00;2.40;99.90
1129;DHT22;553;51.038;7.216;2023-03-07T18:56:27;2.20;99.90
1129;DHT22;553;51.038;7.216;2023-03-07T18:58:56;2.20;99.90
1129;DHT22;553;51.038;7.216;2023-03-07T19:01:30;2.20;99.90
1129;DHT22;553;51.038;7.216;2023-03-07T19:03:58;2.30;99.90
1129;DHT22;553;51.038;7.216;2023-03-07T19:06:34;2.30;99.90
1129;DHT22;553;51.038;7.216;2023-03-07T19:09:02;2.30;99.90
1129;DHT22;553;51.038;7.216;2023-03-07T19:11:29;2.30;99.90
1129;DHT22;553;51.038;7.216;2023-03-07T19:13:56;2.20;99.90
1129;DHT22;553;51.038;7.216;2023-03-07T19:16:27;2.10;99.90
1129;DHT22;553;51.038;7.216;2023-03-07T19:18:55;2.10;99.90